createdAt,value
2022-08-04T00:00:11.160Z,4.60
2022-08-04T00:03:02.187Z,4.90
2022-08-04T00:06:05.601Z,6.70
2022-08-04T00:08:43.716Z,5.70
2022-08-04T00:11:15.575Z,6.20
2022-08-04T00:13:59.777Z,7.70
2022-08-04T00:16:37.819Z,8.30
2022-08-04T00:19:13.080Z,6.90
2022-08-04T00:21:42.951Z,4.50
2022-08-04T00:24:12.829Z,5.60
2022-08-04T00:26:40.443Z,7.50
2022-08-04T00:29:07.398Z,5.30
2022-08-04T00:31:54.653Z,6.40
2022-08-04T00:34:21.526Z,7.10
2022-08-04T00:36:48.488Z,5.10
2022-08-04T00:39:16.330Z,6.20
2022-08-04T00:42:01.571Z,6.10
2022-08-04T00:44:44.018Z,5.10
2022-08-04T00:47:12.423Z,5.80
2022-08-04T00:50:21.317Z,6.20
2022-08-04T00:53:08.033Z,6.60
2022-08-04T00:58:54.525Z,5.00
2022-08-04T01:01:26.147Z,6.10
2022-08-04T01:04:30.909Z,5.30
2022-08-04T01:07:13.967Z,7.50
2022-08-04T01:09:59.697Z,8.70
2022-08-04T01:12:38.440Z,7.60
2022-08-04T01:15:59.798Z,4.50
2022-08-04T01:18:40.246Z,6.30
2022-08-04T01:21:30.570Z,6.20
2022-08-04T01:23:57.566Z,9.50
2022-08-04T01:26:53.866Z,7.30
2022-08-04T01:29:30.478Z,8.90
2022-08-04T01:32:25.475Z,7.80
2022-08-04T01:35:09.344Z,5.30
2022-08-04T01:37:54.791Z,4.70
2022-08-04T01:40:21.778Z,10.40
2022-08-04T01:42:49.987Z,7.00
2022-08-04T01:45:17.189Z,8.80
2022-08-04T01:47:50.502Z,7.90
2022-08-04T01:50:17.428Z,10.20
2022-08-04T01:52:50.375Z,5.90
2022-08-04T01:55:18.425Z,6.80
2022-08-04T01:57:49.690Z,6.40
2022-08-04T02:00:21.697Z,6.50
2022-08-04T02:02:49.725Z,7.90
2022-08-04T02:05:17.854Z,7.80
2022-08-04T02:07:56.615Z,7.80
2022-08-04T02:10:32.591Z,6.30
2022-08-04T02:13:21.430Z,4.70
2022-08-04T02:15:58.512Z,7.40
2022-08-04T02:18:32.360Z,7.20
2022-08-04T02:21:02.393Z,10.10
2022-08-04T02:23:31.843Z,9.30
2022-08-04T02:26:02.385Z,8.60
2022-08-04T02:28:49.122Z,5.10
2022-08-04T02:31:35.070Z,7.30
2022-08-04T02:34:10.111Z,7.20
2022-08-04T02:36:41.329Z,8.00
2022-08-04T02:39:10.440Z,8.60
2022-08-04T02:41:38.405Z,8.60
2022-08-04T02:44:07.089Z,8.20
2022-08-04T02:46:35.519Z,6.30
2022-08-04T02:49:04.277Z,6.40
2022-08-04T02:51:36.030Z,8.70
2022-08-04T02:54:04.576Z,8.20
2022-08-04T02:56:33.419Z,8.30
2022-08-04T02:59:07.981Z,10.10
2022-08-04T03:01:35.425Z,8.70
2022-08-04T03:04:11.908Z,6.40
2022-08-04T03:07:14.306Z,7.80
2022-08-04T03:10:11.589Z,8.30
2022-08-04T03:12:58.688Z,9.10
2022-08-04T03:15:44.533Z,9.20
2022-08-04T03:18:33.775Z,7.80
2022-08-04T03:21:31.474Z,5.10
2022-08-04T03:24:22.416Z,8.20
2022-08-04T03:27:10.216Z,10.30
2022-08-04T03:30:06.693Z,8.60
2022-08-04T03:32:41.643Z,8.50
2022-08-04T03:35:27.147Z,8.80
2022-08-04T03:38:10.728Z,11.20
2022-08-04T03:40:56.370Z,6.70
2022-08-04T03:43:58.366Z,6.80
2022-08-04T03:46:41.638Z,10.80
2022-08-04T03:49:36.858Z,8.20
2022-08-04T03:52:31.946Z,8.90
2022-08-04T03:55:07.860Z,10.00
2022-08-04T03:57:46.150Z,10.50
2022-08-04T04:00:18.123Z,6.20
2022-08-04T04:02:58.898Z,7.40
2022-08-04T04:05:58.681Z,10.30
2022-08-04T04:08:29.902Z,10.00
2022-08-04T04:11:16.511Z,10.70
2022-08-04T04:13:55.090Z,10.80
2022-08-04T04:16:28.961Z,13.00
2022-08-04T04:19:19.981Z,9.30
2022-08-04T04:22:16.608Z,11.10
2022-08-04T04:25:05.204Z,10.60
2022-08-04T04:28:44.545Z,11.00
2022-08-04T04:30:50.079Z,10.30
2022-08-04T04:33:58.743Z,11.30
2022-08-04T04:36:44.491Z,7.20
2022-08-04T04:39:43.929Z,7.80
2022-08-04T04:42:20.075Z,10.00
2022-08-04T04:45:00.328Z,10.20
2022-08-04T04:48:07.488Z,13.40
2022-08-04T04:51:01.372Z,11.00
2022-08-04T04:53:28.273Z,8.40
2022-08-04T04:56:04.866Z,7.60
2022-08-04T04:58:33.515Z,11.30
2022-08-04T05:01:34.932Z,12.10
2022-08-04T05:04:28.450Z,10.90
2022-08-04T05:07:31.029Z,11.40
2022-08-04T05:10:04.366Z,10.40
2022-08-04T05:14:32.354Z,8.70
2022-08-04T05:15:46.495Z,12.20
2022-08-04T05:20:44.587Z,9.30
2022-08-04T05:23:21.631Z,10.80
2022-08-04T05:25:59.249Z,10.50
2022-08-04T05:28:29.919Z,9.00
2022-08-04T05:31:05.959Z,7.30
2022-08-04T05:33:38.855Z,8.10
2022-08-04T05:36:21.584Z,9.70
2022-08-04T05:38:53.152Z,9.30
2022-08-04T05:41:20.095Z,10.20
2022-08-04T05:43:47.131Z,11.40
2022-08-04T05:46:14.200Z,11.70
2022-08-04T05:48:41.140Z,7.00
2022-08-04T05:51:09.392Z,9.70
2022-08-04T05:53:37.206Z,8.90
2022-08-04T05:56:05.119Z,12.30
2022-08-04T05:58:31.977Z,9.50
2022-08-04T06:00:59.946Z,9.80
2022-08-04T06:03:29.276Z,13.20
2022-08-04T06:05:57.268Z,8.00
2022-08-04T06:08:24.899Z,8.20
2022-08-04T06:10:51.970Z,11.60
2022-08-04T06:13:48.701Z,14.80
2022-08-04T06:16:17.836Z,9.30
2022-08-04T06:20:01.315Z,12.20
2022-08-04T06:21:46.279Z,11.30
2022-08-04T06:24:14.460Z,10.00
2022-08-04T06:29:17.007Z,9.80
2022-08-04T06:32:28.588Z,10.70
2022-08-04T06:34:34.115Z,10.30
2022-08-04T06:37:01.081Z,10.50
2022-08-04T06:39:28.158Z,12.50
2022-08-04T06:42:17.382Z,7.50
2022-08-04T06:44:43.166Z,8.60
2022-08-04T06:47:10.704Z,9.70
2022-08-04T06:49:55.170Z,10.40
2022-08-04T06:52:28.426Z,10.90
2022-08-04T06:54:55.843Z,12.30
2022-08-04T06:57:26.589Z,13.60
2022-08-04T06:59:59.379Z,6.30
2022-08-04T07:02:27.839Z,6.60
2022-08-04T07:04:54.767Z,8.10
2022-08-04T07:07:33.708Z,10.00
2022-08-04T07:10:04.204Z,10.10
2022-08-04T07:12:31.437Z,9.50
2022-08-04T07:14:58.911Z,10.20
2022-08-04T07:17:28.912Z,7.40
2022-08-04T07:20:02.410Z,7.80
2022-08-04T07:22:29.500Z,11.30
2022-08-04T07:24:57.051Z,10.00
2022-08-04T07:27:47.952Z,9.50
2022-08-04T07:30:12.205Z,12.20
2022-08-04T07:32:39.451Z,11.00
2022-08-04T07:35:07.617Z,8.30
2022-08-04T07:37:39.943Z,8.90
2022-08-04T07:40:08.076Z,9.70
2022-08-04T07:42:35.336Z,9.60
2022-08-04T07:45:02.742Z,10.10
2022-08-04T07:47:32.348Z,11.40
2022-08-04T07:49:59.438Z,10.30
2022-08-04T07:52:26.841Z,9.10
2022-08-04T07:54:54.523Z,10.20
2022-08-04T07:57:41.349Z,8.90
2022-08-04T08:00:10.434Z,7.60
2022-08-04T08:02:45.852Z,10.80
2022-08-04T08:05:14.281Z,10.70
2022-08-04T08:07:50.496Z,10.40
2022-08-04T08:10:22.149Z,9.20
2022-08-04T08:12:51.548Z,8.90
2022-08-04T08:15:19.809Z,9.90
2022-08-04T08:17:58.501Z,10.00
2022-08-04T08:20:30.493Z,7.40
2022-08-04T08:22:59.062Z,6.90
2022-08-04T08:25:26.060Z,9.90
2022-08-04T08:27:56.412Z,8.00
2022-08-04T08:30:32.184Z,8.60
2022-08-04T08:33:01.510Z,8.10
2022-08-04T08:35:28.726Z,9.70
2022-08-04T08:37:58.566Z,8.20
2022-08-04T08:40:47.438Z,9.30
2022-08-04T08:44:03.841Z,7.60
2022-08-04T08:46:49.727Z,7.90
2022-08-04T08:50:03.212Z,10.80
2022-08-04T08:53:00.810Z,6.50
2022-08-04T08:55:13.897Z,7.40
2022-08-04T08:58:05.767Z,6.90
2022-08-04T09:00:51.327Z,7.50
2022-08-04T09:03:27.985Z,7.90
2022-08-04T09:06:31.599Z,8.20
2022-08-04T09:09:36.839Z,9.90
2022-08-04T09:12:28.066Z,6.40
2022-08-04T09:15:19.452Z,9.20
2022-08-04T09:17:52.875Z,11.00
2022-08-04T09:20:44.672Z,15.70
2022-08-04T09:23:19.312Z,7.70
2022-08-04T09:25:58.025Z,10.30
2022-08-04T09:28:52.289Z,6.20
2022-08-04T09:31:15.477Z,7.40
2022-08-04T09:33:59.734Z,8.80
2022-08-04T09:36:46.687Z,6.20
2022-08-04T09:39:44.563Z,18.10
2022-08-04T09:42:25.950Z,8.70
2022-08-04T09:45:06.178Z,7.30
2022-08-04T09:47:56.833Z,6.60
2022-08-04T09:50:34.024Z,9.20
2022-08-04T09:53:19.396Z,6.30
2022-08-04T09:55:53.393Z,8.10
2022-08-04T09:58:52.225Z,6.20
2022-08-04T10:01:23.459Z,6.00
2022-08-04T10:03:52.820Z,4.20
2022-08-04T10:06:50.618Z,7.70
2022-08-04T10:09:48.902Z,7.20
2022-08-04T10:12:23.111Z,7.20
2022-08-04T10:14:59.547Z,5.70
2022-08-04T10:17:52.216Z,8.10
2022-08-04T10:20:50.858Z,6.90
2022-08-04T10:24:00.224Z,11.20
2022-08-04T10:26:35.184Z,7.70
2022-08-04T10:29:18.338Z,6.80
2022-08-04T10:31:52.482Z,7.00
2022-08-04T10:34:22.309Z,8.40
2022-08-04T10:37:55.268Z,7.40
2022-08-04T10:40:39.786Z,7.70
2022-08-04T10:43:22.015Z,8.70
2022-08-04T10:46:01.246Z,8.30
2022-08-04T10:48:51.631Z,7.80
2022-08-04T10:51:58.946Z,6.40
2022-08-04T10:54:59.064Z,6.70
2022-08-04T10:57:30.853Z,8.00
2022-08-04T11:00:03.792Z,8.10
2022-08-04T11:02:45.488Z,8.10
2022-08-04T11:05:15.783Z,9.30
2022-08-04T11:07:44.252Z,7.30
2022-08-04T11:10:11.765Z,6.40
2022-08-04T11:12:38.960Z,5.20
2022-08-04T11:15:09.600Z,6.20
2022-08-04T11:17:42.058Z,7.10
2022-08-04T11:20:38.624Z,6.80
2022-08-04T11:23:16.609Z,10.00
2022-08-04T11:25:59.537Z,6.60
2022-08-04T11:29:04.813Z,8.20
2022-08-04T11:31:33.121Z,7.40
2022-08-04T11:34:18.972Z,6.90
2022-08-04T11:36:50.421Z,7.70
2022-08-04T11:39:50.647Z,6.80
2022-08-04T11:42:27.593Z,8.10
2022-08-04T11:45:07.937Z,5.50
2022-08-04T11:47:41.820Z,5.00
2022-08-04T11:50:14.031Z,6.50
2022-08-04T11:52:42.080Z,5.70
2022-08-04T11:55:11.504Z,6.20
2022-08-04T11:57:38.518Z,5.90
2022-08-04T12:00:10.723Z,6.00
2022-08-04T12:03:00.575Z,7.10
2022-08-04T12:05:37.805Z,6.80
2022-08-04T12:08:22.284Z,5.90
2022-08-04T12:11:22.356Z,6.60
2022-08-04T12:14:00.201Z,8.60
2022-08-04T12:16:41.099Z,29.60
2022-08-04T12:19:18.565Z,38.00
2022-08-04T12:21:53.131Z,34.00
2022-08-04T12:25:01.077Z,8.80
2022-08-04T12:27:31.782Z,7.60
2022-08-04T12:31:00.061Z,6.50
2022-08-04T12:33:00.353Z,9.40
2022-08-04T12:36:10.680Z,7.90
2022-08-04T12:38:32.871Z,5.80
2022-08-04T12:41:03.092Z,5.90
2022-08-04T12:43:42.244Z,8.20
2022-08-04T12:46:10.381Z,4.70
2022-08-04T12:51:08.622Z,5.80
2022-08-04T12:53:55.430Z,4.30
2022-08-04T12:56:28.474Z,5.70
2022-08-04T12:59:02.001Z,4.10
2022-08-04T13:02:09.581Z,4.20
2022-08-04T13:04:20.066Z,3.70
2022-08-04T13:06:57.858Z,3.90
2022-08-04T13:09:26.947Z,5.00
2022-08-04T13:12:02.491Z,4.70
2022-08-04T13:14:35.130Z,5.70
2022-08-04T13:17:02.729Z,4.40
2022-08-04T13:19:30.900Z,2.90
2022-08-04T13:22:02.565Z,4.30
2022-08-04T13:24:32.119Z,9.50
2022-08-04T13:27:09.103Z,10.30
2022-08-04T13:29:59.625Z,8.10
2022-08-04T13:32:31.024Z,7.60
2022-08-04T13:34:59.099Z,12.80
2022-08-04T13:37:27.488Z,17.70
2022-08-04T13:39:55.367Z,13.60
2022-08-04T13:42:23.099Z,5.50
2022-08-04T13:44:54.802Z,6.90
2022-08-04T13:47:23.674Z,4.10
2022-08-04T13:50:17.020Z,5.40
2022-08-04T13:52:44.443Z,5.90
2022-08-04T13:55:31.829Z,8.60
2022-08-04T13:58:19.780Z,6.60
2022-08-04T14:00:48.388Z,6.40
2022-08-04T14:03:54.279Z,4.60
2022-08-04T14:06:26.147Z,17.60
2022-08-04T14:09:00.177Z,6.20
2022-08-04T14:12:10.464Z,12.40
2022-08-04T14:14:31.846Z,10.70
2022-08-04T14:17:00.540Z,14.20
2022-08-04T14:19:48.853Z,10.60
2022-08-04T14:22:28.433Z,11.90
2022-08-04T14:25:18.598Z,6.50
2022-08-04T14:27:56.731Z,7.30
2022-08-04T14:30:28.287Z,7.10
2022-08-04T14:32:58.661Z,7.00
2022-08-04T14:35:38.322Z,6.20
2022-08-04T14:38:13.669Z,5.60
2022-08-04T14:40:42.353Z,6.90
2022-08-04T14:43:09.671Z,9.20
2022-08-04T14:45:54.757Z,17.80
2022-08-04T14:48:22.331Z,31.60
2022-08-04T14:50:50.135Z,23.50
2022-08-04T14:53:18.758Z,11.70
2022-08-04T14:55:50.704Z,5.50
2022-08-04T14:58:34.444Z,8.10
2022-08-04T15:03:50.518Z,6.30
2022-08-04T15:06:27.141Z,7.80
2022-08-04T15:08:58.930Z,14.30
2022-08-04T15:11:26.028Z,16.80
2022-08-04T15:13:53.393Z,8.40
2022-08-04T15:16:21.528Z,9.00
2022-08-04T15:18:49.563Z,5.50
2022-08-04T15:21:17.026Z,7.20
2022-08-04T15:23:44.028Z,6.10
2022-08-04T15:26:16.091Z,5.90
2022-08-04T15:28:47.327Z,5.50
2022-08-04T15:32:06.160Z,5.60
2022-08-04T15:34:02.354Z,6.60
2022-08-04T15:36:57.980Z,5.20
2022-08-04T15:39:34.026Z,5.40
2022-08-04T15:42:17.534Z,4.90
2022-08-04T15:45:04.877Z,5.70
2022-08-04T15:47:31.906Z,4.00
2022-08-04T15:50:09.983Z,3.50
2022-08-04T15:53:01.360Z,5.90
2022-08-04T15:55:44.158Z,6.30
2022-08-04T15:58:12.964Z,5.30
2022-08-04T16:00:56.730Z,6.10
2022-08-04T16:03:58.366Z,7.80
2022-08-04T16:06:22.558Z,5.10
2022-08-04T16:08:57.264Z,4.80
2022-08-04T16:11:31.804Z,6.30
2022-08-04T16:13:59.323Z,3.90
2022-08-04T16:16:51.313Z,4.70
2022-08-04T16:19:35.125Z,6.30
2022-08-04T16:22:03.336Z,5.30
2022-08-04T16:24:37.803Z,6.10
2022-08-04T16:27:08.819Z,4.40
2022-08-04T16:29:38.220Z,6.10
2022-08-04T16:32:05.237Z,6.20
2022-08-04T16:34:50.385Z,4.10
2022-08-04T16:37:30.524Z,3.70
2022-08-04T16:40:26.393Z,4.50
2022-08-04T16:43:02.463Z,5.50
2022-08-04T16:45:52.800Z,3.90
2022-08-04T16:48:27.325Z,5.50
2022-08-04T16:51:05.045Z,3.70
2022-08-04T16:54:02.599Z,5.00
2022-08-04T16:56:33.556Z,3.80
2022-08-04T16:59:08.840Z,2.60
2022-08-04T17:04:07.376Z,3.90
2022-08-04T17:06:39.697Z,3.90
2022-08-04T17:09:14.528Z,3.20
2022-08-04T17:11:42.988Z,7.10
2022-08-04T17:14:10.269Z,5.50
2022-08-04T17:16:39.384Z,5.20
2022-08-04T17:19:07.315Z,4.90
2022-08-04T17:21:47.774Z,4.30
2022-08-04T17:24:17.860Z,3.20
2022-08-04T17:26:54.026Z,4.80
2022-08-04T17:29:44.267Z,4.40
2022-08-04T17:32:20.933Z,4.30
2022-08-04T17:34:55.118Z,3.60
2022-08-04T17:37:52.178Z,5.40
2022-08-04T17:40:18.089Z,6.60
2022-08-04T17:42:49.488Z,4.30
2022-08-04T17:48:09.009Z,4.30
2022-08-04T17:50:36.734Z,3.80
2022-08-04T17:53:11.815Z,4.10
2022-08-04T17:55:47.011Z,3.80
2022-08-04T17:58:21.057Z,3.80
2022-08-04T18:01:23.025Z,2.90
2022-08-04T18:03:51.864Z,4.60
2022-08-04T18:06:22.359Z,2.30
2022-08-04T18:08:58.836Z,2.70
2022-08-04T18:11:42.247Z,3.30
2022-08-04T18:14:10.352Z,3.90
2022-08-04T18:16:46.637Z,4.50
2022-08-04T18:19:14.989Z,5.40
2022-08-04T18:21:46.676Z,6.10
2022-08-04T18:27:18.534Z,4.00
2022-08-04T18:30:14.831Z,3.60
2022-08-04T18:32:33.300Z,3.10
2022-08-04T18:35:05.082Z,6.30
2022-08-04T18:38:06.156Z,4.30
2022-08-04T18:40:27.371Z,4.50
2022-08-04T18:43:00.464Z,4.30
2022-08-04T18:45:34.402Z,9.60
2022-08-04T18:48:14.100Z,4.90
2022-08-04T18:51:09.693Z,4.70
2022-08-04T18:53:35.753Z,3.50
2022-08-04T18:56:06.404Z,3.60
2022-08-04T18:58:47.178Z,4.60
2022-08-04T19:01:15.381Z,5.00
2022-08-04T19:03:44.250Z,5.60
2022-08-04T19:06:14.352Z,6.10
2022-08-04T19:08:45.299Z,6.50
2022-08-04T19:11:22.006Z,5.70
2022-08-04T19:14:02.727Z,4.30
2022-08-04T19:16:32.160Z,3.30
2022-08-04T19:19:02.799Z,7.40
2022-08-04T19:22:02.469Z,16.50
2022-08-04T19:24:32.409Z,10.00
2022-08-04T19:27:07.239Z,14.70
2022-08-04T19:29:37.242Z,13.00
2022-08-04T19:32:14.000Z,9.60
2022-08-04T19:34:45.707Z,5.70
2022-08-04T19:37:56.856Z,10.30
2022-08-04T19:40:09.492Z,9.50
2022-08-04T19:43:22.902Z,9.50
2022-08-04T19:45:50.562Z,6.10
2022-08-04T19:48:19.838Z,6.90
2022-08-04T19:56:04.637Z,5.60
2022-08-04T19:58:31.726Z,6.30
2022-08-04T20:00:58.844Z,6.20
2022-08-04T20:04:10.152Z,6.50
2022-08-04T20:06:13.289Z,7.30
2022-08-04T20:08:48.280Z,6.00
2022-08-04T20:11:16.688Z,5.60
2022-08-04T20:13:54.298Z,8.30
2022-08-04T20:16:29.947Z,5.90
2022-08-04T20:19:03.200Z,3.60
2022-08-04T20:21:36.654Z,5.70
2022-08-04T20:24:38.168Z,6.20
2022-08-04T20:27:08.976Z,10.70
2022-08-04T20:29:43.337Z,34.90
2022-08-04T20:32:13.579Z,34.90
2022-08-04T20:34:42.159Z,30.00
2022-08-04T20:37:15.231Z,16.80
2022-08-04T20:39:42.988Z,16.70
2022-08-04T20:42:11.553Z,16.80
2022-08-04T20:44:46.252Z,8.50
2022-08-04T20:47:14.167Z,7.50
2022-08-04T20:49:41.221Z,6.50
2022-08-04T20:52:16.484Z,8.90
2022-08-04T20:54:48.419Z,7.70
2022-08-04T20:57:16.835Z,4.50
2022-08-04T20:59:44.143Z,6.30
2022-08-04T21:02:26.735Z,5.50
2022-08-04T21:04:53.991Z,7.30
2022-08-04T21:07:22.245Z,8.00
2022-08-04T21:09:50.130Z,8.20
2022-08-04T21:12:28.057Z,7.40
2022-08-04T21:15:13.222Z,5.60
2022-08-04T21:17:57.805Z,6.80
2022-08-04T21:20:29.035Z,7.70
2022-08-04T21:25:43.422Z,8.10
2022-08-04T21:28:11.973Z,9.30
2022-08-04T21:30:52.439Z,8.30
2022-08-04T21:33:20.845Z,6.70
2022-08-04T21:35:49.185Z,5.00
2022-08-04T21:38:27.969Z,6.20
2022-08-04T21:40:58.873Z,10.50
2022-08-04T21:43:30.038Z,7.90
2022-08-04T21:46:09.943Z,7.60
2022-08-04T21:48:39.013Z,7.80
2022-08-04T21:51:58.694Z,7.90
2022-08-04T21:54:01.750Z,7.40
2022-08-04T21:56:29.141Z,9.60
2022-08-04T21:58:58.013Z,9.20
2022-08-04T22:01:50.316Z,9.10
2022-08-04T22:04:11.969Z,7.10
2022-08-04T22:06:40.385Z,10.30
2022-08-04T22:11:55.962Z,15.90
2022-08-04T22:14:29.529Z,8.20
2022-08-04T22:17:02.516Z,7.80
2022-08-04T22:19:40.589Z,7.00
2022-08-04T22:22:25.040Z,8.90
2022-08-04T22:24:55.000Z,9.90
2022-08-04T22:27:57.608Z,10.60
2022-08-04T22:30:33.091Z,8.90
2022-08-04T22:33:05.062Z,6.10
2022-08-04T22:35:43.358Z,6.80
2022-08-04T22:38:23.927Z,9.20
2022-08-04T22:41:00.856Z,18.40
2022-08-04T22:43:32.254Z,11.30
2022-08-04T22:46:03.518Z,11.10
2022-08-04T22:48:33.077Z,12.20
2022-08-04T22:53:28.150Z,8.30
2022-08-04T22:56:06.855Z,10.60
2022-08-04T22:58:45.829Z,10.30
2022-08-04T23:01:19.214Z,8.00
2022-08-04T23:03:55.247Z,8.40
2022-08-04T23:06:24.975Z,8.70
2022-08-04T23:08:52.439Z,9.10
2022-08-04T23:11:19.420Z,6.20
2022-08-04T23:13:47.216Z,6.40
2022-08-04T23:16:15.918Z,10.10
2022-08-04T23:18:45.288Z,12.60
2022-08-04T23:21:16.374Z,9.60
2022-08-04T23:23:45.682Z,8.70
2022-08-04T23:26:27.395Z,10.30
2022-08-04T23:28:55.996Z,8.10
2022-08-04T23:31:23.960Z,5.10
2022-08-04T23:33:52.142Z,7.30
2022-08-04T23:36:29.987Z,9.30
2022-08-04T23:39:03.885Z,8.50
2022-08-04T23:41:55.324Z,8.00
2022-08-04T23:44:24.819Z,8.40
2022-08-04T23:47:00.503Z,7.70
2022-08-04T23:49:44.177Z,5.80
2022-08-04T23:52:28.235Z,11.80
2022-08-04T23:55:00.339Z,23.10
2022-08-04T23:58:02.301Z,20.20
